createdAt,value
2023-02-24T00:00:50.524Z,592.00
2023-02-24T00:01:50.522Z,586.00
2023-02-24T00:02:50.553Z,591.00
2023-02-24T00:03:50.593Z,590.00
2023-02-24T00:04:50.555Z,595.00
2023-02-24T00:05:50.562Z,594.00
2023-02-24T00:06:50.634Z,591.00
2023-02-24T00:07:50.598Z,598.00
2023-02-24T00:08:50.608Z,591.00
2023-02-24T00:09:50.646Z,593.00
2023-02-24T00:10:50.640Z,591.00
2023-02-24T00:11:50.630Z,591.00
2023-02-24T00:12:50.671Z,590.00
2023-02-24T00:13:50.640Z,595.00
2023-02-24T00:14:50.693Z,592.00
2023-02-24T00:15:50.703Z,593.00
2023-02-24T00:16:50.808Z,588.00
2023-02-24T00:17:50.688Z,592.00
2023-02-24T00:18:50.698Z,587.00
2023-02-24T00:19:50.697Z,592.00
2023-02-24T00:20:50.725Z,590.00
2023-02-24T00:21:50.735Z,587.00
2023-02-24T00:22:50.735Z,591.00
2023-02-24T00:23:50.773Z,593.00
2023-02-24T00:24:50.786Z,590.00
2023-02-24T00:25:50.793Z,591.00
2023-02-24T00:26:50.749Z,590.00
2023-02-24T00:27:50.762Z,594.00
2023-02-24T00:28:50.783Z,592.00
2023-02-24T00:29:50.786Z,595.00
2023-02-24T00:30:50.821Z,589.00
2023-02-24T00:31:51.088Z,590.00
2023-02-24T00:32:50.945Z,590.00
2023-02-24T00:33:50.741Z,589.00
2023-02-24T00:34:50.736Z,591.00
2023-02-24T00:35:50.763Z,587.00
2023-02-24T00:36:50.754Z,588.00
2023-02-24T00:37:50.765Z,591.00
2023-02-24T00:38:50.746Z,592.00
2023-02-24T00:39:50.739Z,590.00
2023-02-24T00:40:50.767Z,590.00
2023-02-24T00:41:50.737Z,585.00
2023-02-24T00:42:50.720Z,587.00
2023-02-24T00:43:50.729Z,594.00
2023-02-24T00:44:50.786Z,586.00
2023-02-24T00:45:50.739Z,582.00
2023-02-24T00:46:50.734Z,588.00
2023-02-24T00:47:50.751Z,590.00
2023-02-24T00:48:50.718Z,587.00
2023-02-24T00:49:50.718Z,590.00
2023-02-24T00:50:50.767Z,590.00
2023-02-24T00:51:50.730Z,596.00
2023-02-24T00:52:50.764Z,589.00
2023-02-24T00:53:50.802Z,588.00
2023-02-24T00:54:50.761Z,591.00
2023-02-24T00:55:50.753Z,585.00
2023-02-24T00:56:50.746Z,587.00
2023-02-24T00:57:50.797Z,593.00
2023-02-24T00:58:50.770Z,591.00
2023-02-24T00:59:50.787Z,588.00
2023-02-24T01:00:50.759Z,588.00
2023-02-24T01:01:50.853Z,587.00
2023-02-24T01:02:50.741Z,589.00
2023-02-24T01:03:50.788Z,582.00
2023-02-24T01:04:50.772Z,586.00
2023-02-24T01:05:50.741Z,587.00
2023-02-24T01:06:50.747Z,588.00
2023-02-24T01:07:50.736Z,589.00
2023-02-24T01:08:50.740Z,580.00
2023-02-24T01:09:50.749Z,585.00
2023-02-24T01:10:50.750Z,588.00
2023-02-24T01:11:50.758Z,588.00
2023-02-24T01:12:50.790Z,589.00
2023-02-24T01:13:50.736Z,581.00
2023-02-24T01:14:50.738Z,586.00
2023-02-24T01:15:50.770Z,582.00
2023-02-24T01:16:50.764Z,579.00
2023-02-24T01:17:50.716Z,580.00
2023-02-24T01:18:50.745Z,584.00
2023-02-24T01:19:50.769Z,583.00
2023-02-24T01:20:50.745Z,579.00
2023-02-24T01:21:50.773Z,582.00
2023-02-24T01:22:50.759Z,581.00
2023-02-24T01:23:50.783Z,581.00
2023-02-24T01:24:50.736Z,579.00
2023-02-24T01:25:50.738Z,580.00
2023-02-24T01:26:50.784Z,581.00
2023-02-24T01:27:50.789Z,582.00
2023-02-24T01:28:50.764Z,584.00
2023-02-24T01:29:50.779Z,581.00
2023-02-24T01:30:50.763Z,581.00
2023-02-24T01:31:50.999Z,583.00
2023-02-24T01:32:51.055Z,584.00
2023-02-24T01:33:50.748Z,580.00
2023-02-24T01:34:50.768Z,578.00
2023-02-24T01:35:50.760Z,581.00
2023-02-24T01:36:50.820Z,580.00
2023-02-24T01:37:50.750Z,582.00
2023-02-24T01:38:50.785Z,578.00
2023-02-24T01:39:50.792Z,581.00
2023-02-24T01:40:50.788Z,579.00
2023-02-24T01:41:50.796Z,580.00
2023-02-24T01:42:50.831Z,577.00
2023-02-24T01:43:50.792Z,580.00
2023-02-24T01:44:50.771Z,581.00
2023-02-24T01:45:50.782Z,583.00
2023-02-24T01:46:50.804Z,579.00
2023-02-24T01:47:50.823Z,579.00
2023-02-24T01:48:50.803Z,581.00
2023-02-24T01:49:50.808Z,583.00
2023-02-24T01:50:50.772Z,581.00
2023-02-24T01:51:50.829Z,577.00
2023-02-24T01:52:50.786Z,579.00
2023-02-24T01:53:50.802Z,576.00
2023-02-24T01:54:50.802Z,578.00
2023-02-24T01:55:50.849Z,577.00
2023-02-24T01:56:50.829Z,581.00
2023-02-24T01:57:50.842Z,581.00
2023-02-24T01:58:50.825Z,577.00
2023-02-24T01:59:50.832Z,573.00
2023-02-24T02:00:50.872Z,578.00
2023-02-24T02:01:50.912Z,574.00
2023-02-24T02:02:51.024Z,577.00
2023-02-24T02:03:50.861Z,577.00
2023-02-24T02:04:50.889Z,581.00
2023-02-24T02:05:50.898Z,574.00
2023-02-24T02:06:50.888Z,576.00
2023-02-24T02:07:50.903Z,580.00
2023-02-24T02:08:50.908Z,578.00
2023-02-24T02:09:50.907Z,573.00
2023-02-24T02:10:50.877Z,574.00
2023-02-24T02:11:50.911Z,577.00
2023-02-24T02:12:50.941Z,578.00
2023-02-24T02:13:50.981Z,580.00
2023-02-24T02:14:50.943Z,581.00
2023-02-24T02:15:50.962Z,577.00
2023-02-24T02:16:50.950Z,575.00
2023-02-24T02:17:50.972Z,574.00
2023-02-24T02:18:50.971Z,579.00
2023-02-24T02:19:50.972Z,574.00
2023-02-24T02:20:51.030Z,577.00
2023-02-24T02:21:51.032Z,575.00
2023-02-24T02:22:51.012Z,576.00
2023-02-24T02:23:51.048Z,578.00
2023-02-24T02:24:51.056Z,573.00
2023-02-24T02:25:51.056Z,575.00
2023-02-24T02:26:51.090Z,576.00
2023-02-24T02:27:51.113Z,573.00
2023-02-24T02:28:51.124Z,579.00
2023-02-24T02:29:51.130Z,577.00
2023-02-24T02:30:51.148Z,576.00
2023-02-24T02:31:51.257Z,576.00
2023-02-24T02:32:51.643Z,578.00
2023-02-24T02:33:51.477Z,578.00
2023-02-24T02:34:51.181Z,580.00
2023-02-24T02:35:51.238Z,575.00
2023-02-24T02:36:51.239Z,575.00
2023-02-24T02:37:51.247Z,573.00
2023-02-24T02:38:51.257Z,580.00
2023-02-24T02:39:51.255Z,576.00
2023-02-24T02:40:51.267Z,574.00
2023-02-24T02:41:51.270Z,575.00
2023-02-24T02:42:51.257Z,579.00
2023-02-24T02:43:51.285Z,577.00
2023-02-24T02:44:51.261Z,576.00
2023-02-24T02:45:51.302Z,573.00
2023-02-24T02:46:51.266Z,574.00
2023-02-24T02:47:51.305Z,576.00
2023-02-24T02:48:51.325Z,576.00
2023-02-24T02:49:51.320Z,573.00
2023-02-24T02:50:51.363Z,572.00
2023-02-24T02:51:51.369Z,579.00
2023-02-24T02:52:51.381Z,583.00
2023-02-24T02:53:51.387Z,579.00
2023-02-24T02:54:51.411Z,576.00
2023-02-24T02:55:51.391Z,576.00
2023-02-24T02:56:51.428Z,579.00
2023-02-24T02:57:51.456Z,577.00
2023-02-24T02:58:51.426Z,578.00
2023-02-24T02:59:51.459Z,578.00
2023-02-24T03:00:51.501Z,575.00
2023-02-24T03:01:51.480Z,570.00
2023-02-24T03:02:51.837Z,577.00
2023-02-24T03:03:51.544Z,572.00
2023-02-24T03:04:51.626Z,577.00
2023-02-24T03:05:51.580Z,575.00
2023-02-24T03:06:51.570Z,574.00
2023-02-24T03:07:51.598Z,577.00
2023-02-24T03:08:51.651Z,574.00
2023-02-24T03:09:51.650Z,578.00
2023-02-24T03:10:51.627Z,576.00
2023-02-24T03:11:51.651Z,577.00
2023-02-24T03:12:51.674Z,572.00
2023-02-24T03:13:51.648Z,580.00
2023-02-24T03:14:51.683Z,578.00
2023-02-24T03:15:51.694Z,574.00
2023-02-24T03:16:51.805Z,571.00
2023-02-24T03:17:51.748Z,575.00
2023-02-24T03:18:51.752Z,570.00
2023-02-24T03:19:51.762Z,577.00
2023-02-24T03:20:51.797Z,573.00
2023-02-24T03:21:51.805Z,576.00
2023-02-24T03:22:51.812Z,573.00
2023-02-24T03:23:51.810Z,577.00
2023-02-24T03:24:51.814Z,573.00
2023-02-24T03:25:51.827Z,576.00
2023-02-24T03:26:51.874Z,577.00
2023-02-24T03:27:51.873Z,574.00
2023-02-24T03:28:51.920Z,572.00
2023-02-24T03:29:51.941Z,572.00
2023-02-24T03:30:51.960Z,572.00
2023-02-24T03:31:52.053Z,571.00
2023-02-24T03:32:52.089Z,572.00
2023-02-24T03:33:52.002Z,574.00
2023-02-24T03:34:52.003Z,577.00
2023-02-24T03:35:52.048Z,574.00
2023-02-24T03:36:52.040Z,570.00
2023-02-24T03:37:52.134Z,571.00
2023-02-24T03:38:52.105Z,569.00
2023-02-24T03:39:52.107Z,572.00
2023-02-24T03:40:52.128Z,576.00
2023-02-24T03:41:52.150Z,576.00
2023-02-24T03:42:52.174Z,571.00
2023-02-24T03:43:52.195Z,572.00
2023-02-24T03:44:52.238Z,575.00
2023-02-24T03:45:52.242Z,572.00
2023-02-24T03:46:52.259Z,576.00
2023-02-24T03:47:52.287Z,577.00
2023-02-24T03:48:52.303Z,571.00
2023-02-24T03:49:52.350Z,574.00
2023-02-24T03:50:52.397Z,574.00
2023-02-24T03:51:52.381Z,579.00
2023-02-24T03:52:52.463Z,578.00
2023-02-24T03:53:52.422Z,575.00
2023-02-24T03:54:52.436Z,568.00
2023-02-24T03:55:52.484Z,573.00
2023-02-24T03:56:52.485Z,573.00
2023-02-24T03:57:52.496Z,574.00
2023-02-24T03:58:52.544Z,573.00
2023-02-24T03:59:52.544Z,568.00
2023-02-24T04:00:52.591Z,575.00
2023-02-24T04:01:52.617Z,574.00
2023-02-24T04:02:52.647Z,576.00
2023-02-24T04:03:52.685Z,575.00
2023-02-24T04:04:52.807Z,572.00
2023-02-24T04:05:52.700Z,574.00
2023-02-24T04:06:55.035Z,569.00
2023-02-24T04:07:52.732Z,574.00
2023-02-24T04:08:52.709Z,573.00
2023-02-24T04:09:52.684Z,575.00
2023-02-24T04:10:52.839Z,573.00
2023-02-24T04:11:52.697Z,572.00
2023-02-24T04:12:52.713Z,575.00
2023-02-24T04:13:52.713Z,573.00
2023-02-24T04:14:52.671Z,572.00
2023-02-24T04:15:52.693Z,574.00
2023-02-24T04:16:52.641Z,572.00
2023-02-24T04:17:52.677Z,573.00
2023-02-24T04:18:52.648Z,574.00
2023-02-24T04:19:52.649Z,573.00
2023-02-24T04:20:52.610Z,574.00
2023-02-24T04:21:52.602Z,572.00
2023-02-24T04:22:52.627Z,572.00
2023-02-24T04:23:52.618Z,573.00
2023-02-24T04:24:52.661Z,571.00
2023-02-24T04:25:52.573Z,578.00
2023-02-24T04:26:52.619Z,582.00
2023-02-24T04:27:52.595Z,574.00
2023-02-24T04:28:52.580Z,575.00
2023-02-24T04:29:52.578Z,578.00
2023-02-24T04:30:52.692Z,574.00
2023-02-24T04:31:52.731Z,576.00
2023-02-24T04:32:52.615Z,577.00
2023-02-24T04:33:52.533Z,576.00
2023-02-24T04:34:52.543Z,575.00
2023-02-24T04:35:52.553Z,578.00
2023-02-24T04:36:52.526Z,579.00
2023-02-24T04:37:52.539Z,573.00
2023-02-24T04:38:52.521Z,574.00
2023-02-24T04:39:52.521Z,574.00
2023-02-24T04:40:52.487Z,580.00
2023-02-24T04:41:52.468Z,579.00
2023-02-24T04:42:52.474Z,576.00
2023-02-24T04:43:52.475Z,582.00
2023-02-24T04:44:52.481Z,581.00
2023-02-24T04:45:52.463Z,576.00
2023-02-24T04:46:52.463Z,578.00
2023-02-24T04:47:52.480Z,571.00
2023-02-24T04:48:52.435Z,579.00
2023-02-24T04:49:52.412Z,575.00
2023-02-24T04:50:52.446Z,574.00
2023-02-24T04:51:52.430Z,579.00
2023-02-24T04:52:52.433Z,575.00
2023-02-24T04:53:52.415Z,578.00
2023-02-24T04:54:52.437Z,581.00
2023-02-24T04:55:52.373Z,573.00
2023-02-24T04:56:52.397Z,579.00
2023-02-24T04:57:52.396Z,575.00
2023-02-24T04:58:52.374Z,577.00
2023-02-24T04:59:52.352Z,577.00
2023-02-24T05:00:52.387Z,580.00
2023-02-24T05:01:52.378Z,578.00
2023-02-24T05:02:52.360Z,576.00
2023-02-24T05:03:52.376Z,575.00
2023-02-24T05:04:52.375Z,579.00
2023-02-24T05:05:52.328Z,575.00
2023-02-24T05:06:52.331Z,577.00
2023-02-24T05:07:52.370Z,576.00
2023-02-24T05:08:52.318Z,577.00
2023-02-24T05:09:52.310Z,582.00
2023-02-24T05:10:52.304Z,576.00
2023-02-24T05:11:52.288Z,578.00
2023-02-24T05:12:52.372Z,569.00
2023-02-24T05:13:52.372Z,574.00
2023-02-24T05:14:52.384Z,583.00
2023-02-24T05:15:52.464Z,571.00
2023-02-24T05:16:52.462Z,574.00
2023-02-24T05:17:52.505Z,575.00
2023-02-24T05:18:52.521Z,576.00
2023-02-24T05:19:52.583Z,578.00
2023-02-24T05:20:52.601Z,571.00
2023-02-24T05:21:52.631Z,576.00
2023-02-24T05:22:52.693Z,576.00
2023-02-24T05:23:52.689Z,576.00
2023-02-24T05:24:52.707Z,579.00
2023-02-24T05:25:52.768Z,577.00
2023-02-24T05:26:52.816Z,577.00
2023-02-24T05:27:52.797Z,580.00
2023-02-24T05:28:52.892Z,578.00
2023-02-24T05:29:55.373Z,576.00
2023-02-24T05:30:53.010Z,584.00
2023-02-24T05:31:53.139Z,585.00
2023-02-24T05:32:53.085Z,581.00
2023-02-24T05:33:53.150Z,583.00
2023-02-24T05:34:53.163Z,575.00
2023-02-24T05:35:53.180Z,576.00
2023-02-24T05:36:53.224Z,577.00
2023-02-24T05:37:53.267Z,584.00
2023-02-24T05:38:55.561Z,581.00
2023-02-24T05:39:53.270Z,583.00
2023-02-24T05:40:53.270Z,580.00
2023-02-24T05:41:53.310Z,581.00
2023-02-24T05:42:53.269Z,579.00
2023-02-24T05:43:53.273Z,589.00
2023-02-24T05:44:53.258Z,586.00
2023-02-24T05:45:53.280Z,583.00
2023-02-24T05:46:53.347Z,581.00
2023-02-24T05:47:53.257Z,582.00
2023-02-24T05:48:53.256Z,586.00
2023-02-24T05:49:53.241Z,582.00
2023-02-24T05:50:53.201Z,583.00
2023-02-24T05:51:53.238Z,584.00
2023-02-24T05:52:53.224Z,582.00
2023-02-24T05:53:53.197Z,586.00
2023-02-24T05:54:53.216Z,579.00
2023-02-24T05:55:53.176Z,585.00
2023-02-24T05:56:53.184Z,580.00
2023-02-24T05:57:53.188Z,588.00
2023-02-24T05:58:54.774Z,581.00
2023-02-24T05:59:53.152Z,588.00
2023-02-24T06:01:00.183Z,585.00
2023-02-24T09:33:56.518Z,662.00
2023-02-24T09:46:56.578Z,640.00
2023-02-24T09:47:56.491Z,640.00
2023-02-24T09:48:56.558Z,645.00
2023-02-24T09:49:57.037Z,641.00
2023-02-24T09:51:56.627Z,649.00
2023-02-24T09:53:02.949Z,651.00
2023-02-24T09:54:56.662Z,648.00
2023-02-24T09:55:56.680Z,645.00
2023-02-24T09:56:56.621Z,638.00
2023-02-24T09:57:56.628Z,648.00
2023-02-24T09:58:56.582Z,653.00
2023-02-24T09:59:56.601Z,646.00
2023-02-24T10:00:56.655Z,654.00
2023-02-24T10:01:56.683Z,648.00
2023-02-24T10:02:56.630Z,640.00
2023-02-24T10:03:57.606Z,652.00
2023-02-24T10:04:56.685Z,655.00
2023-02-24T10:05:56.579Z,651.00
2023-02-24T10:06:56.598Z,647.00
2023-02-24T10:07:56.589Z,641.00
2023-02-24T10:08:56.590Z,651.00
2023-02-24T10:09:56.675Z,650.00
2023-02-24T10:10:56.662Z,639.00
2023-02-24T10:11:56.743Z,638.00
2023-02-24T10:12:56.701Z,633.00
2023-02-24T10:14:03.386Z,639.00
2023-02-24T10:15:57.182Z,636.00
2023-02-24T10:16:56.762Z,635.00
2023-02-24T10:17:56.698Z,639.00
2023-02-24T10:18:56.698Z,629.00
2023-02-24T10:19:56.730Z,638.00
2023-02-24T10:20:56.700Z,649.00
2023-02-24T10:21:56.680Z,658.00
2023-02-24T10:22:56.656Z,643.00
2023-02-24T10:23:56.870Z,639.00
2023-02-24T10:24:56.719Z,633.00
2023-02-24T10:25:56.676Z,631.00
2023-02-24T10:27:07.385Z,634.00
2023-02-24T10:28:56.646Z,634.00
2023-02-24T10:29:56.729Z,633.00
2023-02-24T10:30:56.770Z,632.00
2023-02-24T10:31:56.859Z,629.00
2023-02-24T10:32:56.601Z,619.00
2023-02-24T10:33:56.631Z,627.00
2023-02-24T10:34:56.592Z,616.00
2023-02-24T10:35:56.570Z,627.00
2023-02-24T10:36:56.607Z,617.00
2023-02-24T10:37:56.611Z,615.00
2023-02-24T10:38:56.551Z,605.00
2023-02-24T10:39:57.076Z,617.00
2023-02-24T10:40:56.658Z,621.00
2023-02-24T10:41:56.738Z,624.00
2023-02-24T10:42:56.749Z,605.00
2023-02-24T10:43:56.817Z,594.00
2023-02-24T10:45:01.674Z,585.00
2023-02-24T10:46:56.823Z,589.00
2023-02-24T10:48:56.781Z,656.00
2023-02-24T11:13:57.622Z,1024.00
2023-02-24T15:32:06.619Z,530.00
2023-02-24T15:33:06.526Z,525.00
2023-02-24T15:34:06.553Z,527.00
2023-02-24T15:35:06.637Z,516.00
2023-02-24T15:36:06.673Z,508.00
2023-02-24T15:37:08.736Z,515.00
2023-02-24T15:38:06.726Z,527.00
2023-02-24T15:39:06.758Z,526.00
2023-02-24T15:40:06.702Z,525.00
2023-02-24T15:41:06.707Z,525.00
2023-02-24T15:42:06.721Z,533.00
2023-02-24T15:43:06.674Z,528.00
2023-02-24T15:44:06.697Z,521.00
2023-02-24T15:45:06.734Z,529.00
2023-02-24T15:46:06.716Z,536.00
2023-02-24T15:47:06.729Z,531.00
2023-02-24T15:48:06.690Z,531.00
2023-02-24T15:49:06.674Z,513.00
2023-02-24T15:50:06.672Z,508.00
2023-02-24T15:51:06.664Z,508.00
2023-02-24T15:52:06.660Z,507.00
2023-02-24T15:53:06.615Z,508.00
2023-02-24T15:54:06.593Z,511.00
2023-02-24T15:55:06.590Z,515.00
2023-02-24T15:56:06.616Z,506.00
2023-02-24T15:57:06.609Z,500.00
2023-02-24T15:58:06.578Z,505.00
2023-02-24T15:59:06.590Z,510.00
2023-02-24T16:00:06.577Z,522.00
2023-02-24T16:01:06.589Z,526.00
2023-02-24T16:02:06.594Z,529.00
2023-02-24T16:03:06.558Z,521.00
2023-02-24T16:04:06.645Z,527.00
2023-02-24T16:05:06.572Z,529.00
2023-02-24T16:06:06.611Z,527.00
2023-02-24T16:07:06.537Z,535.00
2023-02-24T16:08:06.567Z,522.00
2023-02-24T16:09:06.526Z,527.00
2023-02-24T16:10:06.523Z,531.00
2023-02-24T16:11:06.555Z,526.00
2023-02-24T16:12:06.505Z,506.00
2023-02-24T16:13:06.516Z,511.00
2023-02-24T16:14:06.606Z,516.00
2023-02-24T16:15:06.650Z,516.00
2023-02-24T16:16:06.791Z,522.00
2023-02-24T16:17:06.786Z,515.00
2023-02-24T16:18:06.816Z,520.00
2023-02-24T16:19:06.875Z,528.00
2023-02-24T16:20:06.943Z,522.00
2023-02-24T16:21:07.065Z,513.00
2023-02-24T16:22:07.062Z,514.00
2023-02-24T16:23:07.110Z,513.00
2023-02-24T16:24:07.153Z,516.00
2023-02-24T16:25:07.208Z,518.00
2023-02-24T16:26:07.302Z,515.00
2023-02-24T16:27:07.322Z,503.00
2023-02-24T16:28:07.400Z,501.00
2023-02-24T16:29:07.465Z,508.00
2023-02-24T16:30:07.452Z,513.00
2023-02-24T16:31:07.615Z,506.00
2023-02-24T16:32:07.742Z,512.00
2023-02-24T16:33:07.689Z,504.00
2023-02-24T16:34:07.587Z,500.00
2023-02-24T16:35:07.623Z,509.00
2023-02-24T16:36:07.666Z,500.00
2023-02-24T16:37:07.743Z,509.00
2023-02-24T16:38:07.777Z,500.00
2023-02-24T16:39:07.817Z,508.00
2023-02-24T16:40:07.870Z,500.00
2023-02-24T16:41:07.932Z,513.00
2023-02-24T16:42:07.974Z,523.00
2023-02-24T16:43:07.984Z,521.00
2023-02-24T16:44:08.034Z,527.00
2023-02-24T16:45:08.073Z,528.00
2023-02-24T16:46:08.135Z,540.00
2023-02-24T16:47:08.106Z,528.00
2023-02-24T16:48:08.155Z,519.00
2023-02-24T16:49:08.204Z,533.00
2023-02-24T16:50:08.251Z,517.00
2023-02-24T16:51:08.263Z,518.00
2023-02-24T16:52:08.321Z,517.00
2023-02-24T16:53:08.311Z,511.00
2023-02-24T16:54:08.334Z,520.00
2023-02-24T16:55:08.372Z,523.00
2023-02-24T16:56:08.392Z,523.00
2023-02-24T16:57:08.391Z,524.00
2023-02-24T16:58:08.422Z,515.00
2023-02-24T16:59:08.461Z,519.00
2023-02-24T17:00:08.504Z,526.00
2023-02-24T17:01:08.591Z,526.00
2023-02-24T17:02:08.553Z,536.00
2023-02-24T17:03:08.630Z,541.00
2023-02-24T17:04:08.721Z,546.00
2023-02-24T17:05:08.685Z,542.00
2023-02-24T17:06:08.725Z,545.00
2023-02-24T17:07:08.759Z,529.00
2023-02-24T17:08:08.799Z,535.00
2023-02-24T17:09:08.819Z,542.00
2023-02-24T17:10:08.845Z,545.00
2023-02-24T17:11:08.856Z,555.00
2023-02-24T17:12:08.895Z,561.00
2023-02-24T17:13:08.939Z,559.00
2023-02-24T17:14:08.933Z,545.00
2023-02-24T17:15:08.957Z,545.00
2023-02-24T17:16:09.003Z,547.00
2023-02-24T17:17:09.083Z,563.00
2023-02-24T17:18:09.044Z,567.00
2023-02-24T17:19:09.062Z,570.00
2023-02-24T17:20:09.073Z,562.00
2023-02-24T17:21:09.095Z,552.00
2023-02-24T17:22:09.108Z,556.00
2023-02-24T17:23:09.186Z,558.00
2023-02-24T17:24:09.215Z,566.00
2023-02-24T17:26:09.221Z,574.00
2023-02-24T17:27:09.300Z,582.00
2023-02-24T17:28:09.298Z,585.00
2023-02-24T17:29:09.327Z,579.00
2023-02-24T17:30:09.352Z,571.00
2023-02-24T17:31:09.566Z,575.00
2023-02-24T17:32:09.538Z,584.00
2023-02-24T17:33:09.455Z,589.00
2023-02-24T17:34:09.518Z,585.00
2023-02-24T17:35:09.557Z,590.00
2023-02-24T17:36:09.583Z,595.00
2023-02-24T17:37:09.583Z,593.00
2023-02-24T17:38:09.622Z,585.00
2023-02-24T17:39:09.674Z,584.00
2023-02-24T17:40:09.713Z,585.00
2023-02-24T17:41:09.699Z,580.00
2023-02-24T17:42:09.721Z,579.00
2023-02-24T17:43:09.775Z,588.00
2023-02-24T17:44:09.764Z,599.00
2023-02-24T17:45:09.779Z,596.00
2023-02-24T17:46:09.868Z,597.00
2023-02-24T17:47:09.786Z,603.00
2023-02-24T17:48:09.856Z,602.00
2023-02-24T17:49:09.890Z,603.00
2023-02-24T17:50:09.944Z,607.00
2023-02-24T17:51:09.974Z,595.00
2023-02-24T17:52:09.987Z,602.00
2023-02-24T17:53:10.006Z,596.00
2023-02-24T17:54:09.999Z,595.00
2023-02-24T17:55:10.090Z,595.00
2023-02-24T17:56:10.054Z,603.00
2023-02-24T21:18:16.477Z,729.00
2023-02-24T21:19:16.485Z,725.00
2023-02-24T21:20:16.551Z,746.00
2023-02-24T21:21:16.578Z,741.00
2023-02-24T21:22:16.594Z,749.00
2023-02-24T21:23:16.615Z,741.00
2023-02-24T21:24:16.645Z,730.00
2023-02-24T21:25:16.664Z,743.00
2023-02-24T21:26:16.706Z,733.00
2023-02-24T21:27:16.702Z,732.00
2023-02-24T21:28:16.710Z,728.00
2023-02-24T21:29:16.802Z,734.00
2023-02-24T21:30:16.776Z,720.00
2023-02-24T21:31:17.094Z,738.00
2023-02-24T21:32:16.946Z,728.00
2023-02-24T21:33:16.853Z,729.00
2023-02-24T21:34:16.934Z,724.00
2023-02-24T21:35:16.912Z,712.00
2023-02-24T21:36:16.955Z,711.00
2023-02-24T21:37:16.972Z,706.00
2023-02-24T21:38:16.981Z,711.00
2023-02-24T21:39:17.008Z,716.00
2023-02-24T21:40:17.070Z,709.00
2023-02-24T21:41:17.057Z,709.00
2023-02-24T21:42:17.114Z,714.00
2023-02-24T21:43:17.134Z,708.00
2023-02-24T21:44:17.173Z,717.00
2023-02-24T21:45:17.182Z,702.00
2023-02-24T21:46:17.230Z,715.00
2023-02-24T21:47:17.222Z,720.00
2023-02-24T21:48:17.251Z,711.00
2023-02-24T21:49:17.284Z,696.00
2023-02-24T21:50:17.267Z,710.00
2023-02-24T21:51:17.349Z,695.00
2023-02-24T21:52:17.367Z,698.00
2023-02-24T21:53:17.367Z,695.00
2023-02-24T21:54:17.363Z,712.00
2023-02-24T21:55:17.390Z,704.00
2023-02-24T21:56:17.434Z,707.00
2023-02-24T21:57:17.480Z,714.00
2023-02-24T21:58:17.471Z,724.00
2023-02-24T21:59:17.481Z,722.00
2023-02-24T22:00:17.550Z,717.00
2023-02-24T22:01:17.562Z,726.00
2023-02-24T22:02:17.584Z,729.00
2023-02-24T22:03:17.678Z,719.00
2023-02-24T22:04:17.642Z,722.00
2023-02-24T22:05:17.685Z,720.00
2023-02-24T22:06:17.693Z,725.00
2023-02-24T22:07:17.768Z,706.00
2023-02-24T22:08:17.714Z,709.00
2023-02-24T22:09:17.783Z,717.00
2023-02-24T22:10:17.787Z,711.00
2023-02-24T22:11:17.786Z,729.00
2023-02-24T22:12:17.807Z,724.00
2023-02-24T22:13:17.830Z,720.00
2023-02-24T22:14:17.899Z,717.00
2023-02-24T22:15:17.866Z,721.00
2023-02-24T22:16:17.884Z,713.00
2023-02-24T22:17:17.885Z,706.00
2023-02-24T22:18:20.190Z,729.00
2023-02-24T22:19:17.902Z,735.00
2023-02-24T22:20:17.899Z,727.00
2023-02-24T22:21:17.877Z,722.00
2023-02-24T22:22:17.889Z,725.00
2023-02-24T22:23:17.882Z,720.00
2023-02-24T22:24:17.851Z,725.00
2023-02-24T22:25:17.822Z,713.00
2023-02-24T22:26:17.847Z,711.00
2023-02-24T22:27:17.841Z,714.00
2023-02-24T22:28:17.866Z,724.00
2023-02-24T22:29:17.840Z,717.00
2023-02-24T22:30:17.814Z,727.00
2023-02-24T22:31:17.918Z,718.00
2023-02-24T22:32:17.984Z,735.00
2023-02-24T22:33:17.773Z,729.00
2023-02-24T22:34:17.813Z,727.00
2023-02-24T22:35:17.765Z,731.00
2023-02-24T22:36:17.779Z,719.00
2023-02-24T22:37:17.778Z,729.00
2023-02-24T22:38:17.788Z,725.00
2023-02-24T22:39:17.758Z,719.00
2023-02-24T22:40:19.276Z,725.00
2023-02-24T22:41:17.755Z,726.00
2023-02-24T22:42:17.730Z,727.00
2023-02-24T22:43:17.756Z,728.00
2023-02-24T22:44:17.727Z,740.00
2023-02-24T22:45:17.713Z,743.00
2023-02-24T22:46:17.756Z,743.00
2023-02-24T22:47:17.738Z,743.00
2023-02-24T22:48:17.731Z,735.00
2023-02-24T22:49:17.716Z,738.00
2023-02-24T22:50:17.691Z,730.00
2023-02-24T22:51:17.681Z,731.00
2023-02-24T22:52:17.679Z,739.00
2023-02-24T22:53:17.677Z,728.00
2023-02-24T22:54:17.678Z,738.00
2023-02-24T22:55:17.654Z,729.00
2023-02-24T22:56:17.660Z,741.00
2023-02-24T22:57:17.639Z,728.00
2023-02-24T22:58:17.638Z,720.00
2023-02-24T22:59:17.655Z,705.00
2023-02-24T23:00:17.625Z,714.00
2023-02-24T23:01:17.742Z,703.00
2023-02-24T23:02:17.620Z,689.00
2023-02-24T23:03:17.603Z,694.00
2023-02-24T23:04:17.595Z,688.00
2023-02-24T23:05:17.611Z,694.00
2023-02-24T23:06:17.614Z,682.00
2023-02-24T23:07:17.573Z,669.00
2023-02-24T23:08:17.578Z,687.00
2023-02-24T23:09:17.574Z,692.00
2023-02-24T23:10:17.580Z,689.00
2023-02-24T23:11:17.558Z,695.00
2023-02-24T23:12:17.543Z,695.00
2023-02-24T23:13:17.531Z,685.00
2023-02-24T23:14:17.521Z,688.00
2023-02-24T23:15:17.544Z,689.00
2023-02-24T23:16:17.599Z,676.00
2023-02-24T23:17:17.514Z,680.00
2023-02-24T23:18:17.501Z,678.00
2023-02-24T23:19:17.539Z,693.00
2023-02-24T23:20:17.501Z,693.00
2023-02-24T23:21:17.451Z,696.00
2023-02-24T23:22:17.469Z,681.00
2023-02-24T23:23:17.469Z,686.00
2023-02-24T23:24:17.463Z,690.00
2023-02-24T23:25:17.442Z,697.00
2023-02-24T23:26:17.436Z,696.00
2023-02-24T23:27:17.432Z,684.00
2023-02-24T23:28:17.440Z,694.00
2023-02-24T23:29:17.405Z,691.00
2023-02-24T23:30:17.435Z,688.00
2023-02-24T23:31:17.566Z,690.00
2023-02-24T23:32:17.589Z,695.00
2023-02-24T23:33:17.378Z,702.00
2023-02-24T23:34:17.400Z,702.00
2023-02-24T23:35:17.375Z,703.00
2023-02-24T23:36:17.380Z,697.00
2023-02-24T23:37:17.417Z,688.00
2023-02-24T23:38:17.366Z,671.00
2023-02-24T23:39:17.348Z,675.00
2023-02-24T23:40:17.345Z,689.00
2023-02-24T23:41:17.351Z,693.00
2023-02-24T23:42:17.347Z,700.00
2023-02-24T23:43:17.351Z,706.00
2023-02-24T23:44:17.344Z,709.00
2023-02-24T23:45:17.441Z,706.00
2023-02-24T23:46:17.484Z,690.00
2023-02-24T23:47:17.499Z,696.00
2023-02-24T23:48:17.509Z,690.00
2023-02-24T23:49:17.561Z,701.00
2023-02-24T23:50:17.526Z,700.00
2023-02-24T23:51:17.561Z,694.00
2023-02-24T23:52:17.566Z,695.00
2023-02-24T23:53:17.577Z,701.00
2023-02-24T23:54:17.579Z,703.00
2023-02-24T23:55:17.587Z,711.00
2023-02-24T23:56:17.625Z,713.00
2023-02-24T23:57:17.628Z,705.00
2023-02-24T23:58:17.642Z,703.00
2023-02-24T23:59:17.656Z,695.00
